Terminal Aerodrome Forecast
Issued by NWS

Home | Current Version | Previous Version | Graphics & Text | Print | Product List | Glossary On
Versions: 1 2 3 4 5 6 7 8 9 10 11 12 13 14 15 16 17 18
000
FTUS43 KMPX 152300
TAFRNH
TAF
KRNH 152338Z 1600/1624 35006KT 1SM -RA BR OVC005
     FM160400 35012G20KT 2SM -RA BR OVC005
      TEMPO 1605/1607 1 1/2SM -SN OVC008
     FM160700 34017G25KT 1 1/2SM -SN OVC008
     FM161100 33019G27KT 5SM -SN OVC010
     FM161300 33017G24KT P6SM OVC014
     FM162100 32014KT P6SM OVC018=

USA.gov is the U.S. government's official web portal to all federal, state and local government web resources and services.